Accueil
METAR-TAF:

METAR-TAF

Aéroports :

Aéroport de Volgograd

Volgograd, Russie

latitude: 48-47N, longitude: 044-22E, altitude: 145 m

Observation

Le bulletin a été fait il y a 34 minutes, à 03:30 UTC
Vent 10 kt de est/sud-est
Température 26°C
Humidité 30%
Pression 1013 hPa
Visibilité 10 km ou plus
pas de nuages en-dessous de 1500 mètres et pas de cumulonimbus.

METAR: URWW 230330Z 12005MPS CAVOK 26/07 Q1013 R06/010070 NOSIG

Heure: 07:04 (04:04 UTC)

Prévision

Le bulletin a été fait il y a 2 heures et 6 minutes, à 01:58 UTC
Prévision valable du 23 à 03 UTC au 23 à 12 UTC
Vent 10 kt de est avec des rafales jusqu'à 19 kt
Visibilité 10 km ou plus
pas de nuages en-dessous de 1500 mètres et pas de cumulonimbus.
Temporairement
du 23 à 03 UTC au 23 à 12 UTC
Vent 14 kt de est/sud-est avec des rafales jusqu'à 25 kt

TAF: URWW 230158Z 2303/2312 09005G10MPS CAVOK TEMPO 2303/2312 12007G13MPS

Observations et prévisions météorologiques de plus de 4000 aéroports (messages METAR et TAF).

Les stations disponibles sont représentées par des disques jaunes et rouges sur la carte.

Passer la souris dessus pour voir le nom de la station.

Cliquer dessus pour voir les observations et prévisions météorologiques.

Pour changer de carte: cliquez sur les boutons verts avec une croix noire pour zoomer, sur le bouton vert avec un tiret pour effectuer un zoom arrière, ou sur les flèches vertes pour les cartes adjacentes.


METAR-TAF: